sensor_id;sensor_type;location;lat;lon;timestamp;temperature;humidity
13482;DHT22;6813;60.352;15.746;2022-12-07T00:00:52;-1.90;99.90
13482;DHT22;6813;60.352;15.746;2022-12-07T00:03:18;-1.80;99.90
13482;DHT22;6813;60.352;15.746;2022-12-07T00:05:44;-1.80;99.90
13482;DHT22;6813;60.352;15.746;2022-12-07T00:08:09;-1.90;99.90
13482;DHT22;6813;60.352;15.746;2022-12-07T00:10:35;-1.90;99.90
13482;DHT22;6813;60.352;15.746;2022-12-07T00:13:01;-1.90;99.90
13482;DHT22;6813;60.352;15.746;2022-12-07T00:15:26;-1.90;99.90
13482;DHT22;6813;60.352;15.746;2022-12-07T00:17:52;-2.10;99.90
13482;DHT22;6813;60.352;15.746;2022-12-07T00:20:18;-2.30;99.90
13482;DHT22;6813;60.352;15.746;2022-12-07T00:22:43;-2.20;99.90
13482;DHT22;6813;60.352;15.746;2022-12-07T00:25:09;-2.20;99.90
13482;DHT22;6813;60.352;15.746;2022-12-07T00:27:36;-2.20;99.90
13482;DHT22;6813;60.352;15.746;2022-12-07T00:30:02;-2.40;99.90
13482;DHT22;6813;60.352;15.746;2022-12-07T00:32:27;-2.40;99.90
13482;DHT22;6813;60.352;15.746;2022-12-07T00:34:53;-2.70;99.90
13482;DHT22;6813;60.352;15.746;2022-12-07T00:37:19;-2.90;99.90
13482;DHT22;6813;60.352;15.746;2022-12-07T00:39:46;-2.80;99.90
13482;DHT22;6813;60.352;15.746;2022-12-07T00:42:11;-2.60;99.90
13482;DHT22;6813;60.352;15.746;2022-12-07T00:44:38;-2.50;99.90
13482;DHT22;6813;60.352;15.746;2022-12-07T00:47:04;-2.40;99.90
13482;DHT22;6813;60.352;15.746;2022-12-07T00:49:30;-2.40;99.90
13482;DHT22;6813;60.352;15.746;2022-12-07T00:51:55;-2.30;99.90
13482;DHT22;6813;60.352;15.746;2022-12-07T00:54:21;-2.30;99.90
13482;DHT22;6813;60.352;15.746;2022-12-07T00:56:48;-2.20;99.90
13482;DHT22;6813;60.352;15.746;2022-12-07T00:59:14;-2.40;99.90
13482;DHT22;6813;60.352;15.746;2022-12-07T01:01:40;-2.90;99.90
13482;DHT22;6813;60.352;15.746;2022-12-07T01:04:06;-2.80;99.90
13482;DHT22;6813;60.352;15.746;2022-12-07T01:06:32;-2.70;99.90
13482;DHT22;6813;60.352;15.746;2022-12-07T01:08:58;-2.50;99.90
13482;DHT22;6813;60.352;15.746;2022-12-07T01:11:26;-2.50;99.90
13482;DHT22;6813;60.352;15.746;2022-12-07T01:13:54;-2.50;99.90
13482;DHT22;6813;60.352;15.746;2022-12-07T01:16:21;-2.50;99.90
13482;DHT22;6813;60.352;15.746;2022-12-07T01:18:49;-2.40;99.90
13482;DHT22;6813;60.352;15.746;2022-12-07T01:21:16;-2.40;99.90
13482;DHT22;6813;60.352;15.746;2022-12-07T01:23:42;-2.30;99.90
13482;DHT22;6813;60.352;15.746;2022-12-07T01:26:11;-2.30;99.90
13482;DHT22;6813;60.352;15.746;2022-12-07T01:28:38;-2.30;99.90
13482;DHT22;6813;60.352;15.746;2022-12-07T01:31:13;-2.20;99.90
13482;DHT22;6813;60.352;15.746;2022-12-07T01:33:41;-2.20;99.90
13482;DHT22;6813;60.352;15.746;2022-12-07T01:36:16;-2.30;99.90
13482;DHT22;6813;60.352;15.746;2022-12-07T01:38:43;-2.40;99.90
13482;DHT22;6813;60.352;15.746;2022-12-07T01:41:09;-2.40;99.90
13482;DHT22;6813;60.352;15.746;2022-12-07T01:43:35;-2.40;99.90
13482;DHT22;6813;60.352;15.746;2022-12-07T01:46:03;-2.40;99.90
13482;DHT22;6813;60.352;15.746;2022-12-07T01:48:36;-2.40;99.90
13482;DHT22;6813;60.352;15.746;2022-12-07T01:51:07;-2.30;99.90
13482;DHT22;6813;60.352;15.746;2022-12-07T01:53:35;-2.20;99.90
13482;DHT22;6813;60.352;15.746;2022-12-07T01:56:03;-2.20;99.90
13482;DHT22;6813;60.352;15.746;2022-12-07T01:58:29;-2.20;99.90
13482;DHT22;6813;60.352;15.746;2022-12-07T02:00:55;-2.10;99.90
13482;DHT22;6813;60.352;15.746;2022-12-07T02:03:32;-2.10;99.90
13482;DHT22;6813;60.352;15.746;2022-12-07T02:06:00;-2.10;99.90
13482;DHT22;6813;60.352;15.746;2022-12-07T02:08:26;-2.10;99.90
13482;DHT22;6813;60.352;15.746;2022-12-07T02:10:52;-2.10;99.90
13482;DHT22;6813;60.352;15.746;2022-12-07T02:13:33;-2.30;99.90
13482;DHT22;6813;60.352;15.746;2022-12-07T02:21:45;-2.60;99.90
13482;DHT22;6813;60.352;15.746;2022-12-07T02:30:10;-2.50;99.90
13482;DHT22;6813;60.352;15.746;2022-12-07T02:35:11;-2.50;99.90
13482;DHT22;6813;60.352;15.746;2022-12-07T02:40:11;-2.50;99.90
13482;DHT22;6813;60.352;15.746;2022-12-07T02:42:45;-2.60;99.90
13482;DHT22;6813;60.352;15.746;2022-12-07T02:45:15;-2.70;99.90
13482;DHT22;6813;60.352;15.746;2022-12-07T02:47:43;-2.80;99.90
13482;DHT22;6813;60.352;15.746;2022-12-07T02:50:10;-2.80;99.90
13482;DHT22;6813;60.352;15.746;2022-12-07T02:52:36;-2.80;99.90
13482;DHT22;6813;60.352;15.746;2022-12-07T02:55:02;-2.90;99.90
13482;DHT22;6813;60.352;15.746;2022-12-07T02:58:20;-3.00;99.90
13482;DHT22;6813;60.352;15.746;2022-12-07T03:03:29;-2.90;99.90
13482;DHT22;6813;60.352;15.746;2022-12-07T03:06:16;-3.00;99.90
13482;DHT22;6813;60.352;15.746;2022-12-07T03:11:29;-3.00;99.90
13482;DHT22;6813;60.352;15.746;2022-12-07T03:14:18;-3.00;99.90
13482;DHT22;6813;60.352;15.746;2022-12-07T03:17:00;-3.00;99.90
13482;DHT22;6813;60.352;15.746;2022-12-07T03:19:29;-3.10;99.90
13482;DHT22;6813;60.352;15.746;2022-12-07T03:22:02;-3.10;99.90
13482;DHT22;6813;60.352;15.746;2022-12-07T03:24:35;-3.10;99.90
13482;DHT22;6813;60.352;15.746;2022-12-07T03:32:43;-3.20;99.90
13482;DHT22;6813;60.352;15.746;2022-12-07T03:35:12;-3.20;99.90
13482;DHT22;6813;60.352;15.746;2022-12-07T03:40:37;-3.30;99.90
13482;DHT22;6813;60.352;15.746;2022-12-07T03:43:05;-3.30;99.90
13482;DHT22;6813;60.352;15.746;2022-12-07T03:45:42;-3.30;99.90
13482;DHT22;6813;60.352;15.746;2022-12-07T03:48:19;-3.40;99.90
13482;DHT22;6813;60.352;15.746;2022-12-07T03:51:24;-3.40;99.90
13482;DHT22;6813;60.352;15.746;2022-12-07T03:54:28;-3.50;99.90
13482;DHT22;6813;60.352;15.746;2022-12-07T03:56:55;-3.50;99.90
13482;DHT22;6813;60.352;15.746;2022-12-07T03:59:23;-3.50;99.90
13482;DHT22;6813;60.352;15.746;2022-12-07T04:01:55;-3.50;99.90
13482;DHT22;6813;60.352;15.746;2022-12-07T04:04:24;-3.40;99.90
13482;DHT22;6813;60.352;15.746;2022-12-07T04:06:50;-3.40;99.90
13482;DHT22;6813;60.352;15.746;2022-12-07T04:09:16;-3.50;99.90
13482;DHT22;6813;60.352;15.746;2022-12-07T04:11:42;-3.50;99.90
13482;DHT22;6813;60.352;15.746;2022-12-07T04:14:09;-3.80;99.90
13482;DHT22;6813;60.352;15.746;2022-12-07T04:19:11;-3.90;99.90
13482;DHT22;6813;60.352;15.746;2022-12-07T04:21:37;-4.10;99.90
13482;DHT22;6813;60.352;15.746;2022-12-07T04:24:03;-4.00;99.90
13482;DHT22;6813;60.352;15.746;2022-12-07T04:26:29;-4.10;99.90
13482;DHT22;6813;60.352;15.746;2022-12-07T04:28:54;-4.20;99.90
13482;DHT22;6813;60.352;15.746;2022-12-07T04:31:20;-4.10;99.90
13482;DHT22;6813;60.352;15.746;2022-12-07T04:33:46;-4.10;99.90
13482;DHT22;6813;60.352;15.746;2022-12-07T04:36:12;-4.00;99.90
13482;DHT22;6813;60.352;15.746;2022-12-07T04:38:37;-3.90;99.90
13482;DHT22;6813;60.352;15.746;2022-12-07T04:41:07;-3.80;99.90
13482;DHT22;6813;60.352;15.746;2022-12-07T04:43:33;-3.80;99.90
13482;DHT22;6813;60.352;15.746;2022-12-07T04:45:59;-3.70;99.90
13482;DHT22;6813;60.352;15.746;2022-12-07T04:48:25;-3.70;99.90
13482;DHT22;6813;60.352;15.746;2022-12-07T04:50:52;-3.60;99.90
13482;DHT22;6813;60.352;15.746;2022-12-07T04:53:18;-3.60;99.90
13482;DHT22;6813;60.352;15.746;2022-12-07T04:55:45;-3.60;99.90
13482;DHT22;6813;60.352;15.746;2022-12-07T04:58:12;-3.50;99.90
13482;DHT22;6813;60.352;15.746;2022-12-07T05:00:38;-3.50;99.90
13482;DHT22;6813;60.352;15.746;2022-12-07T05:03:03;-3.50;99.90
13482;DHT22;6813;60.352;15.746;2022-12-07T05:05:29;-3.50;99.90
13482;DHT22;6813;60.352;15.746;2022-12-07T05:07:55;-3.50;99.90
13482;DHT22;6813;60.352;15.746;2022-12-07T05:10:21;-3.50;99.90
13482;DHT22;6813;60.352;15.746;2022-12-07T05:12:47;-3.50;99.90
13482;DHT22;6813;60.352;15.746;2022-12-07T05:15:14;-3.60;99.90
13482;DHT22;6813;60.352;15.746;2022-12-07T05:17:40;-3.70;99.90
13482;DHT22;6813;60.352;15.746;2022-12-07T05:20:07;-3.70;99.90
13482;DHT22;6813;60.352;15.746;2022-12-07T05:22:33;-3.70;99.90
13482;DHT22;6813;60.352;15.746;2022-12-07T05:24:59;-3.70;99.90
13482;DHT22;6813;60.352;15.746;2022-12-07T05:27:25;-3.80;99.90
13482;DHT22;6813;60.352;15.746;2022-12-07T05:29:51;-3.80;99.90
13482;DHT22;6813;60.352;15.746;2022-12-07T05:32:17;-3.80;99.90
13482;DHT22;6813;60.352;15.746;2022-12-07T05:34:43;-3.80;99.90
13482;DHT22;6813;60.352;15.746;2022-12-07T05:37:09;-3.80;99.90
13482;DHT22;6813;60.352;15.746;2022-12-07T05:39:35;-3.80;99.90
13482;DHT22;6813;60.352;15.746;2022-12-07T05:42:00;-3.90;99.90
13482;DHT22;6813;60.352;15.746;2022-12-07T05:44:39;-3.90;99.90
13482;DHT22;6813;60.352;15.746;2022-12-07T05:47:05;-3.90;99.90
13482;DHT22;6813;60.352;15.746;2022-12-07T05:49:31;-3.90;99.90
13482;DHT22;6813;60.352;15.746;2022-12-07T05:51:56;-3.90;99.90
13482;DHT22;6813;60.352;15.746;2022-12-07T05:54:22;-3.90;99.90
13482;DHT22;6813;60.352;15.746;2022-12-07T05:56:48;-3.80;99.90
13482;DHT22;6813;60.352;15.746;2022-12-07T05:59:14;-3.80;99.90
13482;DHT22;6813;60.352;15.746;2022-12-07T06:02:02;-3.90;99.90
13482;DHT22;6813;60.352;15.746;2022-12-07T06:04:30;-4.00;99.90
13482;DHT22;6813;60.352;15.746;2022-12-07T06:06:56;-4.10;99.90
13482;DHT22;6813;60.352;15.746;2022-12-07T06:09:24;-4.10;99.90
13482;DHT22;6813;60.352;15.746;2022-12-07T06:11:50;-4.20;99.90
13482;DHT22;6813;60.352;15.746;2022-12-07T06:14:34;-4.20;99.90
13482;DHT22;6813;60.352;15.746;2022-12-07T06:17:00;-4.20;99.90
13482;DHT22;6813;60.352;15.746;2022-12-07T06:19:26;-4.20;99.90
13482;DHT22;6813;60.352;15.746;2022-12-07T06:21:53;-4.20;99.90
13482;DHT22;6813;60.352;15.746;2022-12-07T06:24:18;-4.20;99.90
13482;DHT22;6813;60.352;15.746;2022-12-07T06:26:44;-4.30;99.90
13482;DHT22;6813;60.352;15.746;2022-12-07T06:29:11;-4.30;99.90
13482;DHT22;6813;60.352;15.746;2022-12-07T06:31:37;-4.30;99.90
13482;DHT22;6813;60.352;15.746;2022-12-07T06:34:05;-4.40;99.90
13482;DHT22;6813;60.352;15.746;2022-12-07T06:36:32;-4.40;99.90
13482;DHT22;6813;60.352;15.746;2022-12-07T06:38:58;-4.40;99.90
13482;DHT22;6813;60.352;15.746;2022-12-07T06:41:24;-4.30;99.90
13482;DHT22;6813;60.352;15.746;2022-12-07T06:43:50;-4.20;99.90
13482;DHT22;6813;60.352;15.746;2022-12-07T06:46:15;-4.20;99.90
13482;DHT22;6813;60.352;15.746;2022-12-07T06:48:42;-4.20;99.90
13482;DHT22;6813;60.352;15.746;2022-12-07T06:51:08;-4.20;99.90
13482;DHT22;6813;60.352;15.746;2022-12-07T06:53:34;-4.30;99.90
13482;DHT22;6813;60.352;15.746;2022-12-07T06:56:00;-4.20;99.90
13482;DHT22;6813;60.352;15.746;2022-12-07T06:58:26;-4.30;99.90
13482;DHT22;6813;60.352;15.746;2022-12-07T07:00:52;-4.30;99.90
13482;DHT22;6813;60.352;15.746;2022-12-07T07:03:17;-4.30;99.90
13482;DHT22;6813;60.352;15.746;2022-12-07T07:05:43;-4.40;99.90
13482;DHT22;6813;60.352;15.746;2022-12-07T07:08:10;-4.40;99.90
13482;DHT22;6813;60.352;15.746;2022-12-07T07:10:36;-4.40;99.90
13482;DHT22;6813;60.352;15.746;2022-12-07T07:13:02;-4.40;99.90
13482;DHT22;6813;60.352;15.746;2022-12-07T07:15:29;-4.40;99.90
13482;DHT22;6813;60.352;15.746;2022-12-07T07:17:55;-4.50;99.90
13482;DHT22;6813;60.352;15.746;2022-12-07T07:20:20;-4.50;99.90
13482;DHT22;6813;60.352;15.746;2022-12-07T07:22:46;-4.60;99.90
13482;DHT22;6813;60.352;15.746;2022-12-07T07:25:12;-4.50;99.90
13482;DHT22;6813;60.352;15.746;2022-12-07T07:27:37;-4.60;99.90
13482;DHT22;6813;60.352;15.746;2022-12-07T07:30:04;-4.70;99.90
13482;DHT22;6813;60.352;15.746;2022-12-07T07:32:30;-4.90;99.90
13482;DHT22;6813;60.352;15.746;2022-12-07T07:34:56;-4.80;99.90
13482;DHT22;6813;60.352;15.746;2022-12-07T07:37:21;-4.90;99.90
13482;DHT22;6813;60.352;15.746;2022-12-07T07:39:47;-4.80;99.90
13482;DHT22;6813;60.352;15.746;2022-12-07T07:42:13;-4.90;99.90
13482;DHT22;6813;60.352;15.746;2022-12-07T07:44:38;-5.00;99.90
13482;DHT22;6813;60.352;15.746;2022-12-07T07:47:04;-5.00;99.90
13482;DHT22;6813;60.352;15.746;2022-12-07T07:49:30;-5.10;99.90
13482;DHT22;6813;60.352;15.746;2022-12-07T07:51:56;-5.50;99.90
13482;DHT22;6813;60.352;15.746;2022-12-07T07:54:22;-5.50;99.90
13482;DHT22;6813;60.352;15.746;2022-12-07T07:56:47;-5.40;99.90
13482;DHT22;6813;60.352;15.746;2022-12-07T07:59:14;-5.40;99.90
13482;DHT22;6813;60.352;15.746;2022-12-07T08:01:40;-5.30;99.90
13482;DHT22;6813;60.352;15.746;2022-12-07T08:04:06;-5.20;99.90
13482;DHT22;6813;60.352;15.746;2022-12-07T08:06:32;-5.20;99.90
13482;DHT22;6813;60.352;15.746;2022-12-07T08:08:57;-5.10;99.90
13482;DHT22;6813;60.352;15.746;2022-12-07T08:11:24;-5.00;99.90
13482;DHT22;6813;60.352;15.746;2022-12-07T08:13:50;-5.00;99.90
13482;DHT22;6813;60.352;15.746;2022-12-07T08:16:16;-5.00;99.90
13482;DHT22;6813;60.352;15.746;2022-12-07T08:18:42;-5.10;99.90
13482;DHT22;6813;60.352;15.746;2022-12-07T08:21:11;-5.10;99.90
13482;DHT22;6813;60.352;15.746;2022-12-07T08:23:38;-5.20;99.90
13482;DHT22;6813;60.352;15.746;2022-12-07T08:26:09;-5.20;99.90
13482;DHT22;6813;60.352;15.746;2022-12-07T08:28:35;-5.20;99.90
13482;DHT22;6813;60.352;15.746;2022-12-07T08:31:10;-5.20;99.90
13482;DHT22;6813;60.352;15.746;2022-12-07T08:33:36;-5.20;99.90
13482;DHT22;6813;60.352;15.746;2022-12-07T08:36:04;-5.00;99.90
13482;DHT22;6813;60.352;15.746;2022-12-07T08:38:31;-4.90;99.90
13482;DHT22;6813;60.352;15.746;2022-12-07T08:40:58;-4.80;99.90
13482;DHT22;6813;60.352;15.746;2022-12-07T08:43:24;-4.70;99.90
13482;DHT22;6813;60.352;15.746;2022-12-07T08:46:13;-4.60;99.90
13482;DHT22;6813;60.352;15.746;2022-12-07T08:48:46;-4.50;99.90
13482;DHT22;6813;60.352;15.746;2022-12-07T08:51:13;-4.30;99.90
13482;DHT22;6813;60.352;15.746;2022-12-07T08:53:39;-4.20;99.90
13482;DHT22;6813;60.352;15.746;2022-12-07T08:56:07;-4.10;99.90
13482;DHT22;6813;60.352;15.746;2022-12-07T08:58:33;-3.90;99.90
13482;DHT22;6813;60.352;15.746;2022-12-07T09:01:00;-3.80;99.90
13482;DHT22;6813;60.352;15.746;2022-12-07T09:03:26;-3.70;99.90
13482;DHT22;6813;60.352;15.746;2022-12-07T09:05:53;-3.50;99.90
13482;DHT22;6813;60.352;15.746;2022-12-07T09:08:20;-3.40;99.90
13482;DHT22;6813;60.352;15.746;2022-12-07T09:10:47;-3.20;99.90
13482;DHT22;6813;60.352;15.746;2022-12-07T09:13:13;-3.00;99.90
13482;DHT22;6813;60.352;15.746;2022-12-07T09:15:39;-2.90;99.90
13482;DHT22;6813;60.352;15.746;2022-12-07T09:18:04;-2.70;99.90
13482;DHT22;6813;60.352;15.746;2022-12-07T09:20:30;-2.90;99.90
13482;DHT22;6813;60.352;15.746;2022-12-07T09:22:56;-2.80;99.90
13482;DHT22;6813;60.352;15.746;2022-12-07T09:25:22;-2.90;99.90
13482;DHT22;6813;60.352;15.746;2022-12-07T09:27:47;-2.90;99.90
13482;DHT22;6813;60.352;15.746;2022-12-07T09:30:13;-2.90;99.90
13482;DHT22;6813;60.352;15.746;2022-12-07T09:32:39;-3.10;99.90
13482;DHT22;6813;60.352;15.746;2022-12-07T09:35:05;-3.30;99.90
13482;DHT22;6813;60.352;15.746;2022-12-07T09:37:30;-3.30;99.90
13482;DHT22;6813;60.352;15.746;2022-12-07T09:40:00;-3.20;99.90
13482;DHT22;6813;60.352;15.746;2022-12-07T09:42:34;-3.10;99.90
13482;DHT22;6813;60.352;15.746;2022-12-07T09:45:00;-3.10;99.90
13482;DHT22;6813;60.352;15.746;2022-12-07T09:47:27;-3.00;99.90
13482;DHT22;6813;60.352;15.746;2022-12-07T09:49:58;-2.90;99.90
13482;DHT22;6813;60.352;15.746;2022-12-07T09:52:28;-2.90;99.90
13482;DHT22;6813;60.352;15.746;2022-12-07T09:54:55;-2.80;99.90
13482;DHT22;6813;60.352;15.746;2022-12-07T09:57:29;-2.60;99.90
13482;DHT22;6813;60.352;15.746;2022-12-07T10:00:02;-2.50;99.90
13482;DHT22;6813;60.352;15.746;2022-12-07T10:02:43;-2.40;99.90
13482;DHT22;6813;60.352;15.746;2022-12-07T10:05:37;-2.30;99.90
13482;DHT22;6813;60.352;15.746;2022-12-07T10:08:04;-2.20;99.90
13482;DHT22;6813;60.352;15.746;2022-12-07T10:10:33;-2.10;99.90
13482;DHT22;6813;60.352;15.746;2022-12-07T10:18:33;-2.10;99.90
13482;DHT22;6813;60.352;15.746;2022-12-07T10:28:59;-1.80;99.90
13482;DHT22;6813;60.352;15.746;2022-12-07T10:31:26;-1.70;99.90
13482;DHT22;6813;60.352;15.746;2022-12-07T10:33:57;-1.50;99.90
13482;DHT22;6813;60.352;15.746;2022-12-07T10:39:15;-1.40;99.90
13482;DHT22;6813;60.352;15.746;2022-12-07T10:42:00;-1.40;99.90
13482;DHT22;6813;60.352;15.746;2022-12-07T10:44:29;-1.30;99.90
13482;DHT22;6813;60.352;15.746;2022-12-07T10:50:39;-1.30;99.90
13482;DHT22;6813;60.352;15.746;2022-12-07T10:53:22;-1.50;99.90
13482;DHT22;6813;60.352;15.746;2022-12-07T11:06:16;-1.50;99.90
13482;DHT22;6813;60.352;15.746;2022-12-07T11:12:09;-1.40;99.90
13482;DHT22;6813;60.352;15.746;2022-12-07T11:14:48;-1.40;99.90
13482;DHT22;6813;60.352;15.746;2022-12-07T11:17:31;-1.50;99.90
13482;DHT22;6813;60.352;15.746;2022-12-07T11:22:59;-1.80;99.90
13482;DHT22;6813;60.352;15.746;2022-12-07T11:31:18;-2.20;99.90
13482;DHT22;6813;60.352;15.746;2022-12-07T11:33:56;-2.20;99.90
13482;DHT22;6813;60.352;15.746;2022-12-07T11:36:40;-2.20;99.90
13482;DHT22;6813;60.352;15.746;2022-12-07T11:39:36;-2.20;99.90
13482;DHT22;6813;60.352;15.746;2022-12-07T11:42:06;-2.20;99.90
13482;DHT22;6813;60.352;15.746;2022-12-07T11:44:57;-2.20;99.90
13482;DHT22;6813;60.352;15.746;2022-12-07T11:50:34;-2.30;99.90
13482;DHT22;6813;60.352;15.746;2022-12-07T11:55:57;-2.50;99.90
13482;DHT22;6813;60.352;15.746;2022-12-07T12:03:53;-2.50;99.90
13482;DHT22;6813;60.352;15.746;2022-12-07T12:06:22;-2.60;99.90
13482;DHT22;6813;60.352;15.746;2022-12-07T12:22:33;-2.70;99.90
13482;DHT22;6813;60.352;15.746;2022-12-07T12:25:04;-2.90;99.90
13482;DHT22;6813;60.352;15.746;2022-12-07T12:27:38;-3.00;99.90
13482;DHT22;6813;60.352;15.746;2022-12-07T12:30:07;-3.10;99.90
13482;DHT22;6813;60.352;15.746;2022-12-07T12:32:49;-3.20;99.90
13482;DHT22;6813;60.352;15.746;2022-12-07T12:35:34;-3.20;99.90
13482;DHT22;6813;60.352;15.746;2022-12-07T12:38:46;-3.20;99.90
13482;DHT22;6813;60.352;15.746;2022-12-07T12:51:58;-3.30;99.90
13482;DHT22;6813;60.352;15.746;2022-12-07T12:57:08;-3.60;99.90
13482;DHT22;6813;60.352;15.746;2022-12-07T12:59:38;-3.70;99.90
13482;DHT22;6813;60.352;15.746;2022-12-07T13:02:29;-3.70;99.90
13482;DHT22;6813;60.352;15.746;2022-12-07T13:23:33;-3.60;99.90
13482;DHT22;6813;60.352;15.746;2022-12-07T13:26:18;-3.60;99.90
13482;DHT22;6813;60.352;15.746;2022-12-07T13:31:33;-3.60;99.90
13482;DHT22;6813;60.352;15.746;2022-12-07T13:34:01;-3.60;99.90
13482;DHT22;6813;60.352;15.746;2022-12-07T13:36:38;-3.60;99.90
13482;DHT22;6813;60.352;15.746;2022-12-07T13:39:18;-3.70;99.90
13482;DHT22;6813;60.352;15.746;2022-12-07T13:41:48;-3.70;99.90
13482;DHT22;6813;60.352;15.746;2022-12-07T13:44:17;-3.80;99.90
13482;DHT22;6813;60.352;15.746;2022-12-07T13:49:25;-3.80;99.90
13482;DHT22;6813;60.352;15.746;2022-12-07T13:51:52;-3.90;99.90
13482;DHT22;6813;60.352;15.746;2022-12-07T13:54:18;-3.90;99.90
13482;DHT22;6813;60.352;15.746;2022-12-07T13:56:50;-4.00;99.90
13482;DHT22;6813;60.352;15.746;2022-12-07T13:59:19;-4.10;99.90
13482;DHT22;6813;60.352;15.746;2022-12-07T14:01:47;-4.10;99.90
13482;DHT22;6813;60.352;15.746;2022-12-07T14:04:35;-4.10;99.90
13482;DHT22;6813;60.352;15.746;2022-12-07T14:07:18;-4.00;99.90
13482;DHT22;6813;60.352;15.746;2022-12-07T14:09:54;-4.00;99.90
13482;DHT22;6813;60.352;15.746;2022-12-07T14:12:19;-3.90;99.90
13482;DHT22;6813;60.352;15.746;2022-12-07T14:14:49;-4.00;99.90
13482;DHT22;6813;60.352;15.746;2022-12-07T14:17:26;-3.90;99.90
13482;DHT22;6813;60.352;15.746;2022-12-07T14:22:34;-4.10;99.90
13482;DHT22;6813;60.352;15.746;2022-12-07T14:25:23;-4.10;99.90
13482;DHT22;6813;60.352;15.746;2022-12-07T14:27:59;-4.10;99.90
13482;DHT22;6813;60.352;15.746;2022-12-07T14:30:30;-4.20;99.90
13482;DHT22;6813;60.352;15.746;2022-12-07T14:33:02;-4.20;99.90
13482;DHT22;6813;60.352;15.746;2022-12-07T14:35:30;-4.30;99.90
13482;DHT22;6813;60.352;15.746;2022-12-07T14:37:56;-4.50;99.90
13482;DHT22;6813;60.352;15.746;2022-12-07T14:40:27;-4.70;99.90
13482;DHT22;6813;60.352;15.746;2022-12-07T14:43:04;-4.70;99.90
13482;DHT22;6813;60.352;15.746;2022-12-07T14:45:31;-4.70;99.90
13482;DHT22;6813;60.352;15.746;2022-12-07T14:47:56;-4.60;99.90
13482;DHT22;6813;60.352;15.746;2022-12-07T14:50:23;-4.60;99.90
13482;DHT22;6813;60.352;15.746;2022-12-07T14:52:55;-4.50;99.90
13482;DHT22;6813;60.352;15.746;2022-12-07T14:55:27;-4.50;99.90
13482;DHT22;6813;60.352;15.746;2022-12-07T14:57:54;-4.40;99.90
13482;DHT22;6813;60.352;15.746;2022-12-07T15:00:21;-4.50;99.90
13482;DHT22;6813;60.352;15.746;2022-12-07T15:02:47;-4.40;99.90
13482;DHT22;6813;60.352;15.746;2022-12-07T15:05:14;-4.40;99.90
13482;DHT22;6813;60.352;15.746;2022-12-07T15:07:39;-4.40;99.90
13482;DHT22;6813;60.352;15.746;2022-12-07T15:10:43;-4.40;99.90
13482;DHT22;6813;60.352;15.746;2022-12-07T15:13:04;-4.50;99.90
13482;DHT22;6813;60.352;15.746;2022-12-07T15:15:50;-4.60;99.90
13482;DHT22;6813;60.352;15.746;2022-12-07T15:18:16;-4.60;99.90
13482;DHT22;6813;60.352;15.746;2022-12-07T15:20:43;-4.70;99.90
13482;DHT22;6813;60.352;15.746;2022-12-07T15:23:10;-4.80;99.90
13482;DHT22;6813;60.352;15.746;2022-12-07T15:25:36;-4.80;99.90
13482;DHT22;6813;60.352;15.746;2022-12-07T15:28:02;-4.90;99.90
13482;DHT22;6813;60.352;15.746;2022-12-07T15:30:27;-4.90;99.90
13482;DHT22;6813;60.352;15.746;2022-12-07T15:32:53;-4.90;99.90
13482;DHT22;6813;60.352;15.746;2022-12-07T15:35:20;-4.90;99.90
13482;DHT22;6813;60.352;15.746;2022-12-07T15:37:46;-4.90;99.90
13482;DHT22;6813;60.352;15.746;2022-12-07T15:40:13;-5.00;99.90
13482;DHT22;6813;60.352;15.746;2022-12-07T15:42:39;-5.00;99.90
13482;DHT22;6813;60.352;15.746;2022-12-07T15:45:07;-5.10;99.90
13482;DHT22;6813;60.352;15.746;2022-12-07T15:47:38;-5.10;99.90
13482;DHT22;6813;60.352;15.746;2022-12-07T15:50:07;-5.10;99.90
13482;DHT22;6813;60.352;15.746;2022-12-07T15:52:33;-5.40;99.90
13482;DHT22;6813;60.352;15.746;2022-12-07T15:54:59;-5.40;99.90
13482;DHT22;6813;60.352;15.746;2022-12-07T15:57:29;-5.30;99.90
13482;DHT22;6813;60.352;15.746;2022-12-07T15:59:55;-5.40;99.90
13482;DHT22;6813;60.352;15.746;2022-12-07T16:02:21;-5.30;99.90
13482;DHT22;6813;60.352;15.746;2022-12-07T16:04:48;-5.30;99.90
13482;DHT22;6813;60.352;15.746;2022-12-07T16:07:14;-5.40;99.90
13482;DHT22;6813;60.352;15.746;2022-12-07T16:09:41;-5.40;99.90
13482;DHT22;6813;60.352;15.746;2022-12-07T16:12:08;-5.40;99.90
13482;DHT22;6813;60.352;15.746;2022-12-07T16:14:34;-5.30;99.90
13482;DHT22;6813;60.352;15.746;2022-12-07T16:16:59;-5.30;99.90
13482;DHT22;6813;60.352;15.746;2022-12-07T16:19:25;-5.30;99.90
13482;DHT22;6813;60.352;15.746;2022-12-07T16:21:51;-5.30;99.90
13482;DHT22;6813;60.352;15.746;2022-12-07T16:24:17;-5.30;99.90
13482;DHT22;6813;60.352;15.746;2022-12-07T16:26:43;-5.30;99.90
13482;DHT22;6813;60.352;15.746;2022-12-07T16:29:12;-5.40;99.90
13482;DHT22;6813;60.352;15.746;2022-12-07T16:31:39;-5.50;99.90
13482;DHT22;6813;60.352;15.746;2022-12-07T16:34:05;-5.50;99.90
13482;DHT22;6813;60.352;15.746;2022-12-07T16:36:31;-5.50;99.90
13482;DHT22;6813;60.352;15.746;2022-12-07T16:39:02;-5.50;99.90
13482;DHT22;6813;60.352;15.746;2022-12-07T16:41:28;-5.60;99.90
13482;DHT22;6813;60.352;15.746;2022-12-07T16:43:53;-5.60;99.90
13482;DHT22;6813;60.352;15.746;2022-12-07T16:46:20;-5.70;99.90
13482;DHT22;6813;60.352;15.746;2022-12-07T16:48:45;-5.70;99.90
13482;DHT22;6813;60.352;15.746;2022-12-07T16:51:13;-5.70;99.90
13482;DHT22;6813;60.352;15.746;2022-12-07T16:53:41;-5.80;99.90
13482;DHT22;6813;60.352;15.746;2022-12-07T16:56:15;-5.80;99.90
13482;DHT22;6813;60.352;15.746;2022-12-07T16:58:45;-5.90;99.90
13482;DHT22;6813;60.352;15.746;2022-12-07T17:01:17;-5.90;99.90
13482;DHT22;6813;60.352;15.746;2022-12-07T17:03:43;-6.00;99.90
13482;DHT22;6813;60.352;15.746;2022-12-07T17:06:21;-6.00;99.90
13482;DHT22;6813;60.352;15.746;2022-12-07T17:08:47;-6.00;99.90
13482;DHT22;6813;60.352;15.746;2022-12-07T17:11:20;-6.10;99.90
13482;DHT22;6813;60.352;15.746;2022-12-07T17:13:46;-6.10;99.90
13482;DHT22;6813;60.352;15.746;2022-12-07T17:16:31;-6.20;99.90
13482;DHT22;6813;60.352;15.746;2022-12-07T17:18:56;-6.20;99.90
13482;DHT22;6813;60.352;15.746;2022-12-07T17:21:22;-6.20;99.90
13482;DHT22;6813;60.352;15.746;2022-12-07T17:23:48;-6.20;99.90
13482;DHT22;6813;60.352;15.746;2022-12-07T17:26:17;-6.20;99.90
13482;DHT22;6813;60.352;15.746;2022-12-07T17:28:43;-6.10;99.90
13482;DHT22;6813;60.352;15.746;2022-12-07T17:31:12;-6.20;99.90
13482;DHT22;6813;60.352;15.746;2022-12-07T17:33:38;-6.30;99.90
13482;DHT22;6813;60.352;15.746;2022-12-07T17:36:30;-6.30;99.90
13482;DHT22;6813;60.352;15.746;2022-12-07T17:38:57;-6.30;99.90
13482;DHT22;6813;60.352;15.746;2022-12-07T17:41:27;-6.30;99.90
13482;DHT22;6813;60.352;15.746;2022-12-07T17:44:14;-6.40;99.90
13482;DHT22;6813;60.352;15.746;2022-12-07T17:46:40;-6.40;99.90
13482;DHT22;6813;60.352;15.746;2022-12-07T17:49:07;-6.30;99.90
13482;DHT22;6813;60.352;15.746;2022-12-07T17:51:33;-6.40;99.90
13482;DHT22;6813;60.352;15.746;2022-12-07T17:54:21;-6.40;99.90
13482;DHT22;6813;60.352;15.746;2022-12-07T17:56:49;-6.50;99.90
13482;DHT22;6813;60.352;15.746;2022-12-07T17:59:18;-6.50;99.90
13482;DHT22;6813;60.352;15.746;2022-12-07T18:01:44;-6.70;99.90
13482;DHT22;6813;60.352;15.746;2022-12-07T18:04:10;-6.70;99.90